CZMT

Masset Airport

Masset, , Canada
METAR CZMT 221700Z 15006KT 15SM -SHRA SCT030 OVC060 10/09 A2991 RMK SC4SC4 SLP129
Observed Flight Rules
May-22 @ 17:00 UTC (46 minutes ago) Visual Flight Rules
Wind Visibility Clouds Conditions
150° at 6 knots 15 miles
  • Scattered at 3,000' AGL
  • Overcast at 6,000' AGL
  • Light Rain
Temperatures Readings
Current 10°C / 50°F
Dewpoint 9°C / 48°F
Humidity 94%
Altimeter 29.91" Hg
Pressure 1012.9 hPa
Elevation 8
METAR CZMT 221700Z 15006KT 15SM -SHRA SCT030 OVC060 10/09 A2991 RMK SC4SC4 SLP129
Observed Flight Rules
May-22 @ 17:00 UTC
(46 minutes ago)
VFR
Wind Visibility
150° at 6 knots 15 miles
Clouds
  • Scattered at 3,000' AGL
  • Overcast at 6,000' AGL
Conditions
  • Light Rain
Temperature Dewpoint
10°C / 50°F 9°C / 48°F
Humidity Altimeter Pressure
94% 29.91" Hg 1012.9 hPa